Time;durP1;ratioP1;P1;durP2;ratioP2;P2;SDS_P1;SDS_P2;PMS_P1;PMS_P2;Temp;Humidity;BMP_temperature;BMP_pressure;BME280_temperature;BME280_humidity;BME280_pressure;Samples;Min_cycle;Max_cycle;Signal;HPM_P1;HPM_P2
2022/01/19 00:01:04;;;;;;;51.28;21.90;;;6.80;99.90;;;;;;5055923;28;20676;-88
2022/01/19 00:03:30;;;;;;;44.00;20.15;;;6.80;99.90;;;;;;5057967;28;20082;-88
2022/01/19 00:05:56;;;;;;;43.58;20.52;;;6.80;99.90;;;;;;5057198;28;20108;-87
2022/01/19 00:08:23;;;;;;;48.78;20.65;;;6.90;99.90;;;;;;5070368;28;20021;-89
2022/01/19 00:10:50;;;;;;;55.75;22.65;;;6.80;99.90;;;;;;5070537;28;20084;-89
2022/01/19 00:13:17;;;;;;;47.00;20.15;;;6.80;99.90;;;;;;5070425;28;20037;-89
2022/01/19 00:15:43;;;;;;;44.13;19.83;;;6.80;99.90;;;;;;5070298;28;20391;-89
2022/01/19 00:18:08;;;;;;;40.92;19.63;;;6.80;99.90;;;;;;5053919;28;20029;-89
2022/01/19 00:20:35;;;;;;;42.78;20.77;;;6.80;99.90;;;;;;5036716;28;20037;-89
2022/01/19 00:23:03;;;;;;;46.28;20.95;;;6.80;99.90;;;;;;5069752;28;20045;-89
2022/01/19 00:25:29;;;;;;;55.10;22.67;;;6.80;99.90;;;;;;5037382;28;20466;-89
2022/01/19 00:27:57;;;;;;;45.13;19.88;;;6.80;99.90;;;;;;5054004;28;20017;-89
2022/01/19 00:30:22;;;;;;;51.00;20.90;;;6.80;99.90;;;;;;5054119;28;20025;-89
2022/01/19 00:32:48;;;;;;;48.60;21.33;;;6.80;99.90;;;;;;5052920;28;20086;-89
2022/01/19 00:35:14;;;;;;;42.88;20.10;;;6.80;99.90;;;;;;5070217;28;20029;-89
2022/01/19 00:37:42;;;;;;;43.60;20.42;;;6.80;99.90;;;;;;5053255;28;20459;-89
2022/01/19 00:40:14;;;;;;;49.35;21.45;;;6.80;99.90;;;;;;5070072;28;20070;-89
2022/01/19 00:42:42;;;;;;;44.70;19.30;;;6.80;99.90;;;;;;5069814;28;20025;-90
2022/01/19 00:45:10;;;;;;;47.58;20.35;;;6.80;99.90;;;;;;5069570;28;20033;-88
2022/01/19 00:47:36;;;;;;;44.40;19.98;;;6.80;99.90;;;;;;5053253;28;20032;-89
2022/01/19 00:50:05;;;;;;;45.75;19.45;;;6.70;99.90;;;;;;5052864;28;20017;-89
2022/01/19 00:52:31;;;;;;;44.55;20.40;;;6.70;99.90;;;;;;5052936;28;20044;-89
2022/01/19 00:54:57;;;;;;;44.78;20.95;;;6.70;99.90;;;;;;5053120;28;20112;-89
2022/01/19 00:57:23;;;;;;;45.45;20.10;;;6.70;99.90;;;;;;5053247;28;20033;-89
2022/01/19 00:59:50;;;;;;;51.13;20.02;;;6.60;99.90;;;;;;5069481;28;20071;-89
2022/01/19 01:02:16;;;;;;;46.08;19.95;;;6.60;99.90;;;;;;5053035;28;20467;-89
2022/01/19 01:04:42;;;;;;;46.20;19.83;;;6.60;99.90;;;;;;5053682;28;20043;-89
2022/01/19 01:07:08;;;;;;;49.92;20.60;;;6.50;99.90;;;;;;5053617;28;20029;-89
2022/01/19 01:09:33;;;;;;;41.28;18.30;;;6.50;99.90;;;;;;5070549;28;20060;-89
2022/01/19 01:12:02;;;;;;;45.50;20.50;;;6.50;99.90;;;;;;5056817;28;20021;-89
2022/01/19 01:20:00;;;;;;;66.20;13.18;;;6.30;99.90;;;;;;5057763;28;20108;-89
2022/01/19 01:22:26;;;;;;;34.67;14.25;;;6.30;99.90;;;;;;5056116;28;20061;-88
2022/01/19 01:24:51;;;;;;;38.03;12.73;;;6.20;99.90;;;;;;5073011;28;20029;-89
2022/01/19 01:27:18;;;;;;;29.35;13.27;;;6.10;99.90;;;;;;5056726;28;20024;-90
2022/01/19 01:29:44;;;;;;;28.23;14.05;;;6.00;99.90;;;;;;5057351;28;20017;-92
2022/01/19 01:32:10;;;;;;;41.05;17.45;;;5.90;99.90;;;;;;5073111;28;20025;-88
2022/01/19 01:34:36;;;;;;;35.20;16.98;;;5.90;99.90;;;;;;5072865;28;20112;-89
2022/01/19 01:37:22;;;;;;;41.35;17.63;;;5.80;99.90;;;;;;5056490;28;20083;-88
2022/01/19 01:39:50;;;;;;;41.92;19.08;;;5.80;99.90;;;;;;5072527;28;20074;-89
2022/01/19 01:42:18;;;;;;;57.72;21.25;;;5.70;99.90;;;;;;5055803;28;20056;-89
2022/01/19 01:44:48;;;;;;;47.50;19.83;;;5.70;99.90;;;;;;5055541;28;20044;-87
2022/01/19 01:47:16;;;;;;;75.47;20.08;;;5.70;99.90;;;;;;5072713;28;20433;-89
2022/01/19 01:55:15;;;;;;;112.38;17.17;;;5.70;99.90;;;;;;5056916;28;20035;-89
2022/01/19 01:57:41;;;;;;;82.05;15.63;;;5.70;99.90;;;;;;5055953;28;20533;-89
2022/01/19 02:00:10;;;;;;;93.75;17.02;;;5.60;99.90;;;;;;5055720;28;20041;-89
2022/01/19 02:02:36;;;;;;;86.40;16.77;;;5.60;99.90;;;;;;5072081;28;20021;-89
2022/01/19 02:05:08;;;;;;;63.10;16.55;;;5.50;99.90;;;;;;5072389;28;20029;-89
2022/01/19 02:24:04;;;;;;;42.22;14.07;;;5.30;99.90;;;;;;5019664;28;20511;-90
2022/01/19 02:26:53;;;;;;;48.60;15.65;;;5.30;99.90;;;;;;5039317;28;20040;-90
2022/01/19 02:40:27;;;;;;;38.67;17.02;;;5.20;99.90;;;;;;5056419;28;20505;-90
2022/01/19 02:43:09;;;;;;;45.83;18.23;;;5.10;99.90;;;;;;5071465;28;20028;-90
2022/01/19 02:51:07;;;;;;;46.78;19.52;;;5.10;99.90;;;;;;5055721;28;20079;-90
2022/01/19 02:53:36;;;;;;;43.42;20.25;;;5.20;99.90;;;;;;5038885;28;20033;-90
2022/01/19 02:56:08;;;;;;;44.42;20.20;;;5.10;99.90;;;;;;5039050;28;20494;-90
2022/01/19 02:58:38;;;;;;;43.65;19.80;;;5.20;99.90;;;;;;5041682;28;20174;-89
2022/01/19 03:09:17;;;;;;;45.78;20.40;;;5.10;99.90;;;;;;5057160;28;20036;-89
2022/01/19 03:11:42;;;;;;;45.22;19.65;;;5.10;99.90;;;;;;5072828;28;20017;-89
2022/01/19 03:14:08;;;;;;;41.70;20.48;;;5.10;99.90;;;;;;5059224;28;20079;-90
2022/01/19 03:16:35;;;;;;;36.50;18.33;;;5.10;99.90;;;;;;5074794;28;20425;-90
2022/01/19 03:19:01;;;;;;;46.80;19.70;;;5.10;99.90;;;;;;5060399;28;20029;-89
2022/01/19 03:21:27;;;;;;;41.88;17.25;;;5.00;99.90;;;;;;5074394;28;20501;-90
2022/01/19 03:23:53;;;;;;;44.67;19.65;;;5.00;99.90;;;;;;5071141;28;20057;-90
2022/01/19 03:26:21;;;;;;;36.40;17.27;;;5.00;99.90;;;;;;5071646;28;20017;-90
2022/01/19 03:28:47;;;;;;;42.63;17.35;;;5.00;99.90;;;;;;5038434;28;20036;-90
2022/01/19 03:31:13;;;;;;;38.60;17.70;;;4.90;99.90;;;;;;5070831;28;20017;-89
2022/01/19 03:33:41;;;;;;;41.97;18.17;;;5.00;99.90;;;;;;5054966;28;20095;-90
2022/01/19 03:36:07;;;;;;;42.50;18.20;;;4.90;99.90;;;;;;5041668;28;20017;-89
2022/01/19 03:38:33;;;;;;;44.22;18.55;;;4.90;99.90;;;;;;5041449;28;20037;-90
2022/01/19 03:41:01;;;;;;;43.55;19.02;;;4.90;99.90;;;;;;5056021;28;20021;-93
2022/01/19 03:43:27;;;;;;;39.97;18.73;;;4.90;99.90;;;;;;5055577;28;20033;-91
2022/01/19 03:45:54;;;;;;;40.13;17.85;;;4.90;99.90;;;;;;5060760;28;20079;-89
2022/01/19 03:48:42;;;;;;;46.80;19.05;;;4.80;99.90;;;;;;5073832;28;20020;-89
2022/01/19 03:51:08;;;;;;;42.15;18.65;;;4.90;99.90;;;;;;5071100;28;20017;-89
2022/01/19 03:53:34;;;;;;;40.47;19.05;;;4.80;99.90;;;;;;5054851;28;20112;-90
2022/01/19 03:56:01;;;;;;;47.55;19.15;;;4.80;99.90;;;;;;5070142;28;20028;-89
2022/01/19 03:58:26;;;;;;;44.55;18.83;;;4.80;99.90;;;;;;5054984;28;20028;-89
2022/01/19 04:00:58;;;;;;;40.45;19.45;;;4.80;99.90;;;;;;5070431;28;20021;-89
2022/01/19 04:03:50;;;;;;;39.47;18.65;;;4.80;99.90;;;;;;5070290;28;20028;-89
2022/01/19 04:06:51;;;;;;;39.65;18.83;;;4.80;99.90;;;;;;5054459;28;20126;-90
2022/01/19 04:09:00;;;;;;;34.58;16.42;;;4.70;99.90;;;;;;5051628;28;20029;-89
2022/01/19 04:11:26;;;;;;;41.08;17.13;;;4.70;99.90;;;;;;5036624;28;20017;-89
2022/01/19 04:16:20;;;;;;;38.65;17.60;;;4.70;99.90;;;;;;5020643;28;20033;-89
2022/01/19 04:18:51;;;;;;;32.30;17.75;;;4.70;99.90;;;;;;5053730;28;20386;-90
2022/01/19 04:21:16;;;;;;;36.22;17.45;;;4.70;99.90;;;;;;5054305;28;20029;-90
2022/01/19 04:23:42;;;;;;;40.40;17.65;;;4.60;99.90;;;;;;5035602;28;20578;-89
2022/01/19 04:26:08;;;;;;;34.45;15.95;;;4.60;99.90;;;;;;5036572;28;20025;-89
2022/01/19 04:28:34;;;;;;;33.25;16.17;;;4.60;99.90;;;;;;5036518;28;20055;-90
2022/01/19 04:31:02;;;;;;;36.95;17.65;;;4.60;99.90;;;;;;5054141;28;20020;-90
2022/01/19 04:33:28;;;;;;;33.33;15.85;;;4.60;99.90;;;;;;5036883;28;20474;-91
2022/01/19 04:36:17;;;;;;;37.10;16.27;;;4.60;99.90;;;;;;5053853;28;20104;-90
2022/01/19 05:03:00;;;;;;;33.65;15.18;;;4.30;99.90;;;;;;5057228;28;20036;-90
2022/01/19 05:05:32;;;;;;;30.42;15.40;;;4.30;99.90;;;;;;5056568;28;20136;-89
2022/01/19 05:08:14;;;;;;;30.48;14.77;;;4.30;99.90;;;;;;5041443;28;20463;-89
2022/01/19 05:15:51;;;;;;;29.40;13.93;;;4.20;99.90;;;;;;5057692;28;20036;-90
2022/01/19 05:18:17;;;;;;;28.23;14.98;;;4.20;99.90;;;;;;5039659;28;20017;-90
2022/01/19 05:20:45;;;;;;;26.77;14.52;;;4.20;99.90;;;;;;5039894;28;20044;-89
2022/01/19 05:23:11;;;;;;;26.77;13.63;;;4.20;99.90;;;;;;5057328;28;20091;-92
2022/01/19 05:25:37;;;;;;;28.88;15.30;;;4.20;99.90;;;;;;5056268;28;20025;-89
2022/01/19 05:28:03;;;;;;;25.98;15.13;;;4.20;99.90;;;;;;5056318;28;20079;-89
2022/01/19 05:30:35;;;;;;;25.27;14.57;;;4.10;99.90;;;;;;5023519;28;20116;-91
2022/01/19 05:33:01;;;;;;;29.00;14.20;;;4.10;99.90;;;;;;5040132;28;20117;-90
2022/01/19 05:35:30;;;;;;;26.10;13.82;;;4.00;99.90;;;;;;5057232;28;20052;-90
2022/01/19 05:37:56;;;;;;;26.70;14.80;;;4.00;99.90;;;;;;5057596;28;20036;-89
2022/01/19 05:40:22;;;;;;;24.73;14.90;;;4.00;99.90;;;;;;5072923;28;20025;-90
2022/01/19 05:42:49;;;;;;;24.30;13.77;;;3.90;99.90;;;;;;5072754;28;20031;-89
2022/01/19 05:45:18;;;;;;;24.38;14.27;;;3.90;99.90;;;;;;5057479;28;20523;-90
2022/01/19 05:47:45;;;;;;;26.25;15.90;;;3.80;99.90;;;;;;5072477;28;20028;-89
2022/01/19 05:50:13;;;;;;;26.30;16.48;;;3.80;99.90;;;;;;5072704;28;20390;-89
2022/01/19 05:52:38;;;;;;;28.45;14.70;;;3.70;99.90;;;;;;5072463;28;20024;-90
2022/01/19 05:55:07;;;;;;;31.52;17.48;;;3.70;99.90;;;;;;5072394;28;20391;-89
2022/01/19 05:57:33;;;;;;;36.42;18.33;;;3.60;99.90;;;;;;5072285;28;20017;-90
2022/01/19 05:59:59;;;;;;;30.25;18.10;;;3.60;99.90;;;;;;5039400;28;20395;-89
2022/01/19 06:02:25;;;;;;;32.20;18.25;;;3.60;99.90;;;;;;5073057;28;20024;-89
2022/01/19 06:04:54;;;;;;;37.65;20.52;;;3.60;99.90;;;;;;5072918;28;20029;-89
2022/01/19 06:07:26;;;;;;;39.05;19.88;;;3.70;99.90;;;;;;5023530;28;20033;-90
2022/01/19 06:10:03;;;;;;;38.13;19.63;;;3.60;99.90;;;;;;5055640;28;20077;-90
2022/01/19 06:12:31;;;;;;;38.90;20.10;;;3.70;99.90;;;;;;5055169;28;20025;-90
2022/01/19 06:14:57;;;;;;;41.35;20.48;;;3.70;99.90;;;;;;5036865;28;20028;-90
2022/01/19 06:17:22;;;;;;;46.80;22.30;;;3.70;99.90;;;;;;5053650;28;20028;-88
2022/01/19 06:19:48;;;;;;;40.67;20.00;;;3.80;99.90;;;;;;5053957;28;20032;-90
2022/01/19 06:22:17;;;;;;;48.90;23.02;;;3.80;99.90;;;;;;5071470;28;20123;-89
2022/01/19 06:24:43;;;;;;;55.50;25.30;;;3.80;99.90;;;;;;5056555;28;20106;-89
2022/01/19 06:27:12;;;;;;;57.10;23.85;;;3.80;99.90;;;;;;5071893;28;20060;-89
2022/01/19 06:29:38;;;;;;;49.42;25.73;;;3.80;99.90;;;;;;5055091;28;20036;-90
2022/01/19 06:32:04;;;;;;;59.70;26.27;;;3.80;99.90;;;;;;5079188;28;20021;-89
2022/01/19 06:34:30;;;;;;;68.47;27.15;;;3.80;99.90;;;;;;5077390;28;20035;-89
2022/01/19 06:36:56;;;;;;;64.07;27.60;;;3.80;99.90;;;;;;5056575;28;20021;-90
2022/01/19 06:39:24;;;;;;;65.35;27.73;;;3.80;99.90;;;;;;5054409;28;20032;-91
2022/01/19 06:41:50;;;;;;;62.25;29.05;;;3.80;99.90;;;;;;5058119;28;20067;-89
2022/01/19 06:44:16;;;;;;;51.08;24.65;;;3.80;99.90;;;;;;5056174;28;20065;-89
2022/01/19 06:46:43;;;;;;;55.60;24.42;;;3.80;99.90;;;;;;5056429;28;20036;-89
2022/01/19 06:49:09;;;;;;;67.55;26.98;;;3.80;99.90;;;;;;5076765;28;20017;-88
2022/01/19 06:51:35;;;;;;;58.67;26.70;;;3.80;99.90;;;;;;5056912;28;20036;-88
2022/01/19 06:54:01;;;;;;;70.43;26.92;;;3.80;99.90;;;;;;5055280;28;20124;-88
2022/01/19 06:56:29;;;;;;;58.78;25.90;;;3.80;99.90;;;;;;5073185;28;20455;-86
2022/01/19 06:58:55;;;;;;;55.38;25.33;;;3.80;99.90;;;;;;5023152;28;20070;-88
2022/01/19 07:01:24;;;;;;;57.55;25.50;;;3.80;99.90;;;;;;5071695;28;20025;-89
2022/01/19 07:03:50;;;;;;;70.70;28.05;;;3.80;99.90;;;;;;5071857;28;20040;-89
2022/01/19 07:06:16;;;;;;;56.80;25.50;;;3.80;99.90;;;;;;5073105;28;20056;-88
2022/01/19 07:08:41;;;;;;;63.70;27.60;;;3.80;99.90;;;;;;5055521;28;20024;-88
2022/01/19 07:11:12;;;;;;;53.80;25.70;;;3.80;99.90;;;;;;5057042;28;20017;-90
2022/01/19 07:13:38;;;;;;;56.78;24.67;;;3.80;99.90;;;;;;5058655;28;20064;-89
2022/01/19 07:16:04;;;;;;;53.22;24.98;;;3.80;99.90;;;;;;5086005;28;20028;-90
2022/01/19 07:18:30;;;;;;;62.97;28.70;;;3.80;99.90;;;;;;5083352;28;20023;-89
2022/01/19 07:20:57;;;;;;;64.28;28.08;;;3.70;99.90;;;;;;5079374;28;20029;-89
2022/01/19 07:23:23;;;;;;;46.65;23.67;;;3.80;99.90;;;;;;5075564;28;20144;-90
2022/01/19 07:25:49;;;;;;;57.90;26.45;;;3.80;99.90;;;;;;5057589;28;20056;-89
2022/01/19 07:28:17;;;;;;;52.17;25.58;;;3.80;99.90;;;;;;5072392;28;20125;-89
2022/01/19 07:30:43;;;;;;;51.17;24.65;;;3.80;99.90;;;;;;5071559;28;20036;-89
2022/01/19 07:33:09;;;;;;;59.58;25.77;;;3.80;99.90;;;;;;5055266;28;20033;-90
2022/01/19 07:35:35;;;;;;;54.75;25.27;;;3.80;99.90;;;;;;5055026;28;20108;-89
2022/01/19 07:38:04;;;;;;;50.05;24.30;;;3.90;99.90;;;;;;5038045;28;20413;-89
2022/01/19 07:40:29;;;;;;;52.83;25.00;;;3.80;99.90;;;;;;5055022;28;20017;-90
2022/01/19 07:42:55;;;;;;;50.30;24.48;;;3.80;99.90;;;;;;5036335;28;20028;-89
2022/01/19 07:45:21;;;;;;;60.97;25.00;;;3.90;99.90;;;;;;5037141;28;20032;-89
2022/01/19 07:47:46;;;;;;;51.42;24.05;;;3.80;99.90;;;;;;5037102;28;20036;-89
2022/01/19 07:50:12;;;;;;;56.55;24.27;;;3.90;99.90;;;;;;5037565;28;20454;-90
2022/01/19 07:52:38;;;;;;;59.53;26.23;;;3.90;99.90;;;;;;5037106;28;20028;-89
2022/01/19 07:55:04;;;;;;;60.10;26.73;;;3.90;99.90;;;;;;5037355;28;20056;-89
2022/01/19 07:57:30;;;;;;;40.80;21.80;;;3.90;99.90;;;;;;5053681;28;20029;-89
2022/01/19 08:00:03;;;;;;;45.47;21.65;;;3.90;99.90;;;;;;5055112;28;20025;-89
2022/01/19 08:02:33;;;;;;;51.05;24.17;;;3.90;99.90;;;;;;5036121;28;20024;-91
2022/01/19 08:04:59;;;;;;;47.38;23.40;;;3.90;99.90;;;;;;5037190;28;20033;-89
2022/01/19 08:07:24;;;;;;;50.60;24.35;;;3.90;99.90;;;;;;5036741;28;20070;-89
2022/01/19 08:09:51;;;;;;;48.30;25.20;;;3.90;99.90;;;;;;5054533;28;20086;-86
2022/01/19 08:12:20;;;;;;;43.75;23.55;;;3.90;99.90;;;;;;5053130;28;20025;-86
2022/01/19 08:14:46;;;;;;;44.40;21.95;;;3.90;99.90;;;;;;5023470;28;20036;-87
2022/01/19 08:17:12;;;;;;;42.10;21.52;;;3.90;99.90;;;;;;5039921;28;20029;-87
2022/01/19 08:19:38;;;;;;;50.60;23.85;;;3.90;99.90;;;;;;5038095;28;20379;-89
2022/01/19 08:22:04;;;;;;;44.88;23.08;;;4.00;99.90;;;;;;5070107;28;20025;-88
2022/01/19 08:24:30;;;;;;;43.63;23.05;;;3.90;99.90;;;;;;5054276;28;20124;-88
2022/01/19 08:26:56;;;;;;;51.17;22.73;;;3.90;99.90;;;;;;5069109;28;20097;-87
2022/01/19 08:29:22;;;;;;;41.20;22.27;;;3.90;99.90;;;;;;5036130;28;20073;-88
2022/01/19 08:31:48;;;;;;;43.58;22.55;;;3.90;99.90;;;;;;5070301;28;20379;-88
2022/01/19 08:34:13;;;;;;;46.58;23.17;;;3.90;99.90;;;;;;5053168;28;20036;-88
2022/01/19 08:36:39;;;;;;;40.08;21.85;;;3.90;99.90;;;;;;5054542;28;20048;-88
2022/01/19 08:39:07;;;;;;;43.83;22.23;;;3.90;99.90;;;;;;5054531;28;20025;-88
2022/01/19 08:41:33;;;;;;;38.60;21.88;;;4.00;99.90;;;;;;5038088;28;20036;-91
2022/01/19 08:43:59;;;;;;;47.25;21.52;;;4.00;99.90;;;;;;5036297;28;20531;-88
2022/01/19 08:46:25;;;;;;;40.85;22.23;;;4.00;99.90;;;;;;5069675;28;20021;-88
2022/01/19 08:48:50;;;;;;;40.67;21.50;;;4.00;99.90;;;;;;5019619;28;20032;-88
2022/01/19 08:51:16;;;;;;;40.53;21.02;;;4.00;99.90;;;;;;5053539;28;20505;-88
2022/01/19 08:53:42;;;;;;;42.15;21.08;;;4.00;99.90;;;;;;5052954;28;20084;-88
2022/01/19 08:56:08;;;;;;;41.03;22.15;;;4.00;99.90;;;;;;5036216;28;20032;-87
2022/01/19 08:58:34;;;;;;;42.42;21.90;;;4.00;99.90;;;;;;5052791;28;20021;-89
2022/01/19 09:01:00;;;;;;;39.00;22.02;;;4.00;99.90;;;;;;5052840;28;20036;-88
2022/01/19 09:03:25;;;;;;;41.75;23.40;;;4.00;99.90;;;;;;5069979;28;20025;-88
2022/01/19 09:05:51;;;;;;;38.97;22.35;;;4.00;99.90;;;;;;5052765;28;20047;-88
2022/01/19 09:08:17;;;;;;;43.78;23.88;;;4.00;99.90;;;;;;5069759;28;20022;-88
2022/01/19 09:10:44;;;;;;;37.88;22.48;;;4.00;99.90;;;;;;5069924;28;20529;-89
2022/01/19 09:13:10;;;;;;;42.42;23.35;;;4.00;99.90;;;;;;5054631;28;20021;-88
2022/01/19 09:15:36;;;;;;;43.22;22.67;;;4.00;99.90;;;;;;5036363;28;20104;-90
2022/01/19 09:18:02;;;;;;;40.85;21.60;;;4.00;99.90;;;;;;5069598;28;20033;-86
2022/01/19 09:20:28;;;;;;;40.63;22.52;;;4.00;99.90;;;;;;5054470;28;20025;-88
2022/01/19 09:22:53;;;;;;;39.75;20.40;;;4.10;99.90;;;;;;5053295;28;20045;-88
2022/01/19 09:25:19;;;;;;;36.50;22.38;;;4.10;99.90;;;;;;5019657;28;20037;-87
2022/01/19 09:27:45;;;;;;;42.55;24.20;;;4.20;99.90;;;;;;5035319;28;20032;-89
2022/01/19 09:30:15;;;;;;;35.05;20.35;;;4.10;99.90;;;;;;5036232;28;20017;-89
2022/01/19 09:32:55;;;;;;;41.05;22.23;;;4.10;99.90;;;;;;5057229;28;20017;-88
2022/01/19 09:35:26;;;;;;;39.10;21.42;;;4.10;99.90;;;;;;5056954;28;20047;-89
2022/01/19 09:37:52;;;;;;;41.22;20.67;;;4.10;99.90;;;;;;5039792;28;20033;-87
2022/01/19 09:40:18;;;;;;;35.70;20.77;;;4.10;99.90;;;;;;5023585;28;20139;-88
2022/01/19 09:42:48;;;;;;;37.78;21.38;;;4.10;99.90;;;;;;5056606;28;20021;-88
2022/01/19 09:45:14;;;;;;;36.85;21.02;;;4.20;99.90;;;;;;5057468;28;20033;-88
2022/01/19 09:47:43;;;;;;;37.92;21.02;;;4.20;99.90;;;;;;5039651;28;20102;-90
2022/01/19 09:50:09;;;;;;;38.22;20.92;;;4.20;99.90;;;;;;5040018;28;20066;-88
2022/01/19 09:52:38;;;;;;;37.00;20.85;;;4.20;99.90;;;;;;5039654;28;20383;-89
2022/01/19 09:55:04;;;;;;;40.65;21.73;;;4.20;99.90;;;;;;5058120;28;20021;-89
2022/01/19 09:57:33;;;;;;;36.70;21.38;;;4.20;99.90;;;;;;5038563;28;20025;-88
2022/01/19 09:59:58;;;;;;;36.38;21.08;;;4.20;99.90;;;;;;5087814;28;20451;-88
2022/01/19 10:02:24;;;;;;;36.22;20.17;;;4.20;99.90;;;;;;5058702;28;20082;-89
2022/01/19 10:04:51;;;;;;;35.78;20.90;;;4.30;99.90;;;;;;5041430;28;20033;-88
2022/01/19 10:07:23;;;;;;;35.42;21.30;;;4.30;99.90;;;;;;5053011;28;20028;-88
2022/01/19 10:09:53;;;;;;;38.97;21.50;;;4.30;99.90;;;;;;5067722;28;20045;-89
2022/01/19 10:18:21;;;;;;;37.50;21.45;;;4.30;99.90;;;;;;5056310;28;20048;-89
2022/01/19 10:21:12;;;;;;;30.23;19.65;;;4.30;99.90;;;;;;5039416;28;20029;-89
2022/01/19 10:23:48;;;;;;;35.38;19.98;;;4.30;99.90;;;;;;5056585;28;20105;-94
2022/01/19 10:26:24;;;;;;;32.85;20.52;;;4.30;99.90;;;;;;5055939;28;20036;-89
2022/01/19 10:29:07;;;;;;;30.05;19.42;;;4.40;99.90;;;;;;5072037;28;20524;-89
2022/01/19 10:31:34;;;;;;;34.45;20.05;;;4.40;99.90;;;;;;5072552;28;20029;-88
2022/01/19 10:34:18;;;;;;;34.90;19.77;;;4.40;99.90;;;;;;5071793;28;20095;-88
2022/01/19 10:37:04;;;;;;;35.97;19.95;;;4.40;99.90;;;;;;5071755;28;20036;-88
2022/01/19 10:39:42;;;;;;;39.38;22.60;;;4.40;99.90;;;;;;5056402;28;20033;-88
2022/01/19 10:42:11;;;;;;;41.33;20.60;;;4.50;99.90;;;;;;5054083;28;20440;-88
2022/01/19 10:44:49;;;;;;;35.78;19.48;;;4.50;99.90;;;;;;5071668;28;20029;-88
2022/01/19 10:47:17;;;;;;;38.13;20.77;;;4.50;99.90;;;;;;5072071;28;20048;-88
2022/01/19 10:50:01;;;;;;;38.70;21.58;;;4.50;99.90;;;;;;5056057;28;20025;-89
2022/01/19 10:52:32;;;;;;;37.03;20.88;;;4.60;99.90;;;;;;5071362;28;20017;-87
2022/01/19 10:55:00;;;;;;;38.65;20.23;;;4.50;99.90;;;;;;5055425;28;20040;-89
2022/01/19 10:57:28;;;;;;;31.65;19.15;;;4.60;99.90;;;;;;5062466;28;20036;-88
2022/01/19 11:00:09;;;;;;;37.60;20.63;;;4.60;99.90;;;;;;5061705;28;20032;-88
2022/01/19 11:02:39;;;;;;;38.88;21.17;;;4.60;99.90;;;;;;5058410;28;20105;-88
2022/01/19 11:05:05;;;;;;;37.83;19.90;;;4.60;99.90;;;;;;5056060;28;20041;-88
2022/01/19 11:07:31;;;;;;;37.63;21.15;;;4.70;99.90;;;;;;5059405;28;20021;-88
2022/01/19 11:09:58;;;;;;;32.33;19.83;;;4.70;99.90;;;;;;5058792;28;20051;-89
2022/01/19 11:12:32;;;;;;;38.50;21.23;;;4.70;99.90;;;;;;5071298;28;20026;-89
2022/01/19 11:14:58;;;;;;;36.38;20.00;;;4.70;99.90;;;;;;5057043;28;20029;-88
2022/01/19 11:17:24;;;;;;;39.15;20.90;;;4.80;99.90;;;;;;5058166;28;20025;-89
2022/01/19 11:19:49;;;;;;;41.22;22.88;;;4.80;99.90;;;;;;5055436;28;20017;-89
2022/01/19 11:22:18;;;;;;;40.15;22.27;;;4.80;99.90;;;;;;5054493;28;20162;-88
2022/01/19 11:25:07;;;;;;;32.45;20.08;;;4.80;99.90;;;;;;5054254;28;20497;-89
2022/01/19 11:28:02;;;;;;;36.92;22.15;;;4.80;99.90;;;;;;5055995;28;20025;-88
2022/01/19 11:30:32;;;;;;;39.25;23.23;;;4.80;99.90;;;;;;5063583;28;20104;-90
2022/01/19 11:33:24;;;;;;;37.40;22.48;;;4.80;99.90;;;;;;5073778;28;20078;-89
2022/01/19 11:35:50;;;;;;;;;;;4.80;99.90;;;;;;5073626;28;20025;-88
2022/01/19 11:38:38;;;;;;;39.75;22.13;;;4.80;99.90;;;;;;5057051;28;19915;-88
2022/01/19 11:41:40;;;;;;;39.25;22.52;;;4.80;99.90;;;;;;5054190;28;20069;-88
2022/01/19 11:44:09;;;;;;;35.00;21.30;;;4.80;99.90;;;;;;5051346;28;20041;-89
2022/01/19 11:46:40;;;;;;;44.45;22.27;;;4.90;99.90;;;;;;5054853;28;20021;-88
2022/01/19 11:49:09;;;;;;;44.58;23.67;;;4.90;99.90;;;;;;5073160;28;20506;-89
2022/01/19 11:51:40;;;;;;;39.15;22.40;;;4.90;99.90;;;;;;5056184;28;20032;-89
2022/01/19 11:54:35;;;;;;;42.83;22.90;;;4.90;99.90;;;;;;5071344;28;20036;-88
2022/01/19 11:57:04;;;;;;;38.60;22.38;;;4.90;99.90;;;;;;5052773;28;20036;-88
2022/01/19 11:59:50;;;;;;;35.28;21.52;;;5.00;99.90;;;;;;5039585;28;20118;-88
2022/01/19 12:02:25;;;;;;;34.45;20.98;;;5.00;99.90;;;;;;5038031;28;20119;-89
2022/01/19 12:05:02;;;;;;;35.10;20.42;;;5.00;99.90;;;;;;5054353;28;20065;-89
2022/01/19 12:07:43;;;;;;;35.17;20.95;;;5.00;99.90;;;;;;5054384;28;20105;-89
2022/01/19 12:10:14;;;;;;;35.22;21.40;;;5.00;99.90;;;;;;5038067;28;20108;-87
2022/01/19 12:12:57;;;;;;;38.75;21.33;;;5.00;99.90;;;;;;5036523;28;20032;-88
2022/01/19 12:15:49;;;;;;;38.13;23.33;;;5.00;99.90;;;;;;5022854;28;20060;-89
2022/01/19 12:18:37;;;;;;;33.38;20.63;;;5.10;99.90;;;;;;5051727;28;20086;-86
2022/01/19 12:21:03;;;;;;;38.65;21.15;;;5.00;99.90;;;;;;5052797;28;20056;-88
2022/01/19 12:23:31;;;;;;;37.08;21.42;;;5.10;99.90;;;;;;5068690;28;20462;-85
2022/01/19 12:26:02;;;;;;;38.70;22.35;;;5.10;99.90;;;;;;5053729;28;20028;-87
2022/01/19 12:28:45;;;;;;;35.93;21.30;;;5.10;99.90;;;;;;5054298;28;20021;-87
2022/01/19 12:31:26;;;;;;;38.05;23.50;;;5.20;99.90;;;;;;5069277;28;20017;-88
2022/01/19 12:34:19;;;;;;;34.30;22.10;;;5.10;99.90;;;;;;5054072;28;20494;-89
2022/01/19 12:37:06;;;;;;;35.80;21.65;;;5.20;99.90;;;;;;5047320;28;20033;-88
2022/01/19 12:39:44;;;;;;;35.45;21.35;;;5.20;99.90;;;;;;5070895;28;20119;-88
2022/01/19 12:42:15;;;;;;;38.40;21.58;;;5.30;99.90;;;;;;5070080;28;20082;-89
2022/01/19 12:44:56;;;;;;;33.88;20.60;;;5.30;99.90;;;;;;5054482;28;20475;-87
2022/01/19 12:47:26;;;;;;;37.10;22.65;;;5.30;99.90;;;;;;5070007;28;20032;-89
2022/01/19 12:50:15;;;;;;;37.70;23.90;;;5.40;99.90;;;;;;5037159;28;20029;-89
2022/01/19 12:52:57;;;;;;;40.53;23.17;;;5.40;99.90;;;;;;5052647;28;20055;-89
2022/01/19 12:55:29;;;;;;;38.05;24.05;;;5.40;99.90;;;;;;5038818;28;20532;-90
2022/01/19 12:57:56;;;;;;;39.15;24.17;;;5.40;99.90;;;;;;5053596;28;20037;-88
2022/01/19 13:00:26;;;;;;;36.40;21.45;;;5.40;99.90;;;;;;5053895;28;20048;-87
2022/01/19 13:02:57;;;;;;;38.42;22.52;;;5.50;99.90;;;;;;5053542;28;20035;-92
2022/01/19 13:05:28;;;;;;;39.35;22.85;;;5.50;99.90;;;;;;5053794;28;20474;-87
2022/01/19 13:07:59;;;;;;;44.85;23.25;;;5.50;99.90;;;;;;5057745;28;20528;-89
2022/01/19 13:10:39;;;;;;;36.28;21.13;;;5.50;99.90;;;;;;5057675;28;20025;-88
2022/01/19 13:13:13;;;;;;;38.88;22.35;;;5.50;99.90;;;;;;5057278;28;20060;-87
2022/01/19 13:15:46;;;;;;;41.30;24.00;;;5.50;99.90;;;;;;5056210;28;20029;-88
2022/01/19 13:18:15;;;;;;;38.50;23.08;;;5.50;99.90;;;;;;5057413;28;20108;-88
2022/01/19 13:20:55;;;;;;;36.70;23.17;;;5.50;99.90;;;;;;5072725;28;20029;-88
2022/01/19 13:23:21;;;;;;;37.55;23.65;;;5.50;99.90;;;;;;5072896;28;20152;-88
2022/01/19 13:26:02;;;;;;;35.55;22.80;;;5.60;99.90;;;;;;5056513;28;20029;-87
2022/01/19 13:28:30;;;;;;;42.53;24.40;;;5.60;99.90;;;;;;5060237;28;20035;-87
2022/01/19 13:31:08;;;;;;;43.38;25.38;;;5.60;99.90;;;;;;5060663;28;20024;-88
2022/01/19 13:33:36;;;;;;;40.50;23.25;;;5.60;99.90;;;;;;5073202;28;20024;-87
2022/01/19 13:36:04;;;;;;;34.40;22.80;;;5.60;99.90;;;;;;5073829;28;20104;-88
2022/01/19 13:38:30;;;;;;;38.10;24.50;;;5.60;99.90;;;;;;5058286;28;20021;-87
2022/01/19 13:41:07;;;;;;;44.80;25.98;;;5.70;99.90;;;;;;5073444;28;20470;-91
2022/01/19 13:43:41;;;;;;;39.15;25.13;;;5.60;99.90;;;;;;5073671;28;20123;-87
2022/01/19 13:46:14;;;;;;;36.25;23.10;;;5.60;99.90;;;;;;5057145;28;20032;-88
2022/01/19 13:48:47;;;;;;;44.50;26.27;;;5.70;99.90;;;;;;5072768;28;20117;-87
2022/01/19 13:51:15;;;;;;;40.88;25.63;;;5.60;99.90;;;;;;5072623;28;20090;-88
2022/01/19 13:53:53;;;;;;;38.42;23.95;;;5.70;99.90;;;;;;5056584;28;20471;-88
2022/01/19 13:56:31;;;;;;;41.00;25.13;;;5.70;99.90;;;;;;5072298;28;20021;-87
2022/01/19 13:59:01;;;;;;;44.33;26.20;;;5.70;99.90;;;;;;5072009;28;20021;-87
2022/01/19 14:01:34;;;;;;;41.33;25.45;;;5.70;99.90;;;;;;5056784;28;20055;-88
2022/01/19 14:04:05;;;;;;;39.88;25.15;;;5.70;99.90;;;;;;5038516;28;20103;-88
2022/01/19 14:06:40;;;;;;;42.42;25.48;;;5.70;99.90;;;;;;5055298;28;20021;-88
2022/01/19 14:09:34;;;;;;;39.53;23.77;;;5.70;99.90;;;;;;5054591;28;20017;-88
2022/01/19 14:12:11;;;;;;;50.10;27.05;;;5.70;99.90;;;;;;5056364;28;20013;-88
2022/01/19 14:14:51;;;;;;;43.45;25.15;;;5.70;99.90;;;;;;5071968;28;20025;-88
2022/01/19 14:17:36;;;;;;;40.70;25.80;;;5.70;99.90;;;;;;5071844;28;20017;-88
2022/01/19 14:20:05;;;;;;;41.03;24.77;;;5.70;99.90;;;;;;5071813;28;20442;-88
2022/01/19 14:22:33;;;;;;;43.70;26.38;;;5.70;99.90;;;;;;5055843;28;20028;-88